createdAt,value
2022-11-25T00:01:34.817Z,7.35
2022-11-25T00:04:04.760Z,7.42
2022-11-25T00:06:36.013Z,7.49
2022-11-25T00:09:10.641Z,7.53
2022-11-25T00:11:42.701Z,7.48
2022-11-25T00:14:16.092Z,7.48
2022-11-25T00:16:48.055Z,7.52
2022-11-25T00:19:18.267Z,7.58
2022-11-25T00:21:45.403Z,7.45
2022-11-25T00:24:17.602Z,7.28
2022-11-25T00:26:47.443Z,7.42
2022-11-25T00:29:17.928Z,7.27
2022-11-25T00:31:44.866Z,7.30
2022-11-25T00:34:14.814Z,7.35
2022-11-25T00:36:46.307Z,7.31
2022-11-25T00:39:16.965Z,7.15
2022-11-25T00:42:03.514Z,7.19
2022-11-25T00:44:35.751Z,6.83
2022-11-25T00:47:10.582Z,7.12
2022-11-25T00:49:40.325Z,6.94
2022-11-25T00:52:08.422Z,7.05
2022-11-25T00:54:38.003Z,7.12
2022-11-25T00:57:07.716Z,7.03
2022-11-25T00:59:37.017Z,7.14
2022-11-25T01:02:03.968Z,7.20
2022-11-25T01:04:30.968Z,7.02
2022-11-25T01:06:59.937Z,6.87
2022-11-25T01:09:27.871Z,6.83
2022-11-25T01:11:59.839Z,6.92
2022-11-25T01:14:32.235Z,6.99
2022-11-25T01:16:59.086Z,6.80
2022-11-25T01:19:26.065Z,6.73
2022-11-25T01:21:52.988Z,6.68
2022-11-25T01:24:19.868Z,6.73
2022-11-25T01:26:49.274Z,6.87
2022-11-25T01:29:21.397Z,6.97
2022-11-25T01:31:48.747Z,6.80
2022-11-25T01:34:19.665Z,6.84
2022-11-25T01:36:46.684Z,6.86
2022-11-25T01:39:27.074Z,7.02
2022-11-25T01:42:00.883Z,6.72
2022-11-25T01:44:30.147Z,6.84
2022-11-25T01:47:24.445Z,6.89
2022-11-25T01:50:01.462Z,6.64
2022-11-25T01:52:30.885Z,6.61
2022-11-25T01:55:10.580Z,6.59
2022-11-25T01:57:47.841Z,6.69
2022-11-25T02:00:15.444Z,6.63
2022-11-25T02:02:42.955Z,6.54
2022-11-25T02:05:13.944Z,6.67
2022-11-25T02:07:46.620Z,6.67
2022-11-25T02:10:32.202Z,6.61
2022-11-25T02:13:00.175Z,6.67
2022-11-25T02:15:31.661Z,6.71
2022-11-25T02:17:58.785Z,6.97
2022-11-25T02:20:30.822Z,6.86
2022-11-25T02:23:03.844Z,6.64
2022-11-25T02:25:40.380Z,6.60
2022-11-25T02:28:16.288Z,6.66
2022-11-25T02:30:44.359Z,6.47
2022-11-25T02:33:12.060Z,6.58
2022-11-25T02:35:48.097Z,6.50
2022-11-25T02:38:30.927Z,6.52
2022-11-25T02:41:14.961Z,6.84
2022-11-25T02:43:42.365Z,6.83
2022-11-25T02:46:22.716Z,6.96
2022-11-25T02:49:08.948Z,6.79
2022-11-25T02:51:39.982Z,6.84
2022-11-25T02:54:07.533Z,6.80
2022-11-25T02:56:37.726Z,6.83
2022-11-25T02:59:08.186Z,6.87
2022-11-25T03:01:36.219Z,6.95
2022-11-25T03:04:05.757Z,7.02
2022-11-25T03:06:35.284Z,6.73
2022-11-25T03:09:05.083Z,7.04
2022-11-25T03:11:50.182Z,6.84
2022-11-25T03:14:17.088Z,6.84
2022-11-25T03:16:48.860Z,6.78
2022-11-25T03:19:15.860Z,6.65
2022-11-25T03:21:42.764Z,6.46
2022-11-25T03:24:09.785Z,6.38
2022-11-25T03:26:39.173Z,6.36
2022-11-25T03:29:09.051Z,6.64
2022-11-25T03:31:36.076Z,6.74
2022-11-25T03:34:03.042Z,6.74
2022-11-25T03:36:33.350Z,6.74
2022-11-25T03:39:00.328Z,6.79
2022-11-25T03:41:27.197Z,6.82
2022-11-25T03:43:56.631Z,6.77
2022-11-25T03:46:25.935Z,6.36
2022-11-25T03:48:52.870Z,6.39
2022-11-25T03:51:20.613Z,6.27
2022-11-25T03:53:47.464Z,6.14
2022-11-25T03:56:14.419Z,6.26
2022-11-25T03:58:41.324Z,6.14
2022-11-25T04:01:12.756Z,5.99
2022-11-25T04:03:39.712Z,6.14
2022-11-25T04:06:06.819Z,6.03
2022-11-25T04:08:33.759Z,6.17
2022-11-25T04:11:02.904Z,6.15
2022-11-25T04:13:35.103Z,6.24
2022-11-25T04:16:01.985Z,6.26
2022-11-25T04:18:28.950Z,6.27
2022-11-25T04:20:56.033Z,6.46
2022-11-25T04:23:23.009Z,6.33
2022-11-25T04:25:53.011Z,6.30
2022-11-25T04:28:19.925Z,6.39
2022-11-25T04:30:47.036Z,6.40
2022-11-25T04:33:16.413Z,6.45
2022-11-25T04:35:45.975Z,6.47
2022-11-25T04:38:14.993Z,6.29
2022-11-25T04:40:41.896Z,6.23
2022-11-25T04:43:10.753Z,5.78
2022-11-25T04:48:28.797Z,6.11
2022-11-25T04:50:56.216Z,6.17
2022-11-25T04:53:23.096Z,6.11
2022-11-25T04:55:52.462Z,5.92
2022-11-25T04:58:41.758Z,5.76
2022-11-25T05:01:08.726Z,5.66
2022-11-25T05:03:35.815Z,5.99
2022-11-25T05:06:08.144Z,6.21
2022-11-25T05:08:37.474Z,6.20
2022-11-25T05:11:06.906Z,6.15
2022-11-25T05:13:36.120Z,6.34
2022-11-25T05:16:03.079Z,6.37
2022-11-25T05:18:30.150Z,6.37
2022-11-25T05:21:05.188Z,6.34
2022-11-25T05:23:32.410Z,6.42
2022-11-25T05:26:06.520Z,6.40
2022-11-25T05:28:35.672Z,6.48
2022-11-25T05:31:02.668Z,6.45
2022-11-25T05:33:29.772Z,6.38
2022-11-25T05:36:04.673Z,6.55
2022-11-25T05:38:34.064Z,6.64
2022-11-25T05:41:07.887Z,6.44
2022-11-25T05:43:37.897Z,6.46
2022-11-25T05:46:08.362Z,6.38
2022-11-25T05:48:35.490Z,6.51
2022-11-25T05:51:04.252Z,6.47
2022-11-25T05:53:31.637Z,6.57
2022-11-25T05:56:04.912Z,6.56
2022-11-25T05:58:34.336Z,6.64
2022-11-25T06:01:08.890Z,6.64
2022-11-25T06:03:38.777Z,6.58
2022-11-25T06:06:08.975Z,6.58
2022-11-25T06:08:39.869Z,6.44
2022-11-25T06:11:13.002Z,6.24
2022-11-25T06:13:44.003Z,6.11
2022-11-25T06:16:25.413Z,6.13
2022-11-25T06:18:52.763Z,6.05
2022-11-25T06:21:20.129Z,6.04
2022-11-25T06:23:47.387Z,6.13
2022-11-25T06:26:21.901Z,5.94
2022-11-25T06:28:52.252Z,6.13
2022-11-25T06:31:22.463Z,6.22
2022-11-25T06:33:55.117Z,6.43
2022-11-25T06:36:22.951Z,6.58
2022-11-25T06:38:54.896Z,6.54
2022-11-25T06:41:23.089Z,6.19
2022-11-25T06:43:50.376Z,6.05
2022-11-25T06:46:24.475Z,6.07
2022-11-25T06:48:58.720Z,6.20
2022-11-25T06:51:25.691Z,6.21
2022-11-25T06:53:53.600Z,6.22
2022-11-25T06:56:27.261Z,6.41
2022-11-25T06:58:56.691Z,6.67
2022-11-25T07:01:26.194Z,6.70
2022-11-25T07:04:04.844Z,6.18
2022-11-25T07:06:33.418Z,6.31
2022-11-25T07:09:00.774Z,6.28
2022-11-25T07:11:34.774Z,6.41
2022-11-25T07:14:05.493Z,6.80
2022-11-25T07:16:36.997Z,7.02
2022-11-25T07:19:06.826Z,7.22
2022-11-25T07:21:36.258Z,7.31
2022-11-25T07:24:06.631Z,7.04
2022-11-25T07:26:39.288Z,7.56
2022-11-25T07:29:43.997Z,8.01
2022-11-25T07:32:05.799Z,8.44
2022-11-25T07:34:35.754Z,8.49
2022-11-25T07:37:02.602Z,8.45
2022-11-25T07:39:29.510Z,8.34
2022-11-25T07:41:58.877Z,8.23
2022-11-25T07:44:28.198Z,8.06
2022-11-25T07:46:55.378Z,7.65
2022-11-25T07:49:25.694Z,7.41
2022-11-25T07:51:59.800Z,7.15
2022-11-25T07:54:29.367Z,7.21
2022-11-25T07:57:01.493Z,7.44
2022-11-25T07:59:28.357Z,7.47
2022-11-25T08:01:56.333Z,7.32
2022-11-25T08:04:26.115Z,7.28
2022-11-25T08:06:53.565Z,7.40
2022-11-25T08:09:23.755Z,6.97
2022-11-25T08:11:55.014Z,6.91
2022-11-25T08:14:25.806Z,7.18
2022-11-25T08:16:52.669Z,7.33
2022-11-25T08:19:29.878Z,7.15
2022-11-25T08:21:58.329Z,7.45
2022-11-25T08:24:28.203Z,7.70
2022-11-25T08:26:56.625Z,7.69
2022-11-25T08:29:25.648Z,7.79
2022-11-25T08:31:52.608Z,7.92
2022-11-25T08:34:25.699Z,7.61
2022-11-25T08:36:54.743Z,7.78
2022-11-25T08:42:11.129Z,7.91
2022-11-25T08:44:38.007Z,7.98
2022-11-25T08:47:07.397Z,7.95
2022-11-25T08:49:41.170Z,7.89
2022-11-25T08:52:10.070Z,7.97
2022-11-25T08:54:37.091Z,7.96
2022-11-25T08:57:09.395Z,7.86
2022-11-25T08:59:42.385Z,8.18
2022-11-25T09:02:13.029Z,8.03
2022-11-25T09:04:39.993Z,8.01
2022-11-25T09:07:06.886Z,7.73
2022-11-25T09:09:37.120Z,7.98
2022-11-25T09:12:06.763Z,7.93
2022-11-25T09:14:36.803Z,7.76
2022-11-25T09:17:15.304Z,7.84
2022-11-25T09:19:42.280Z,7.97
2022-11-25T09:22:09.193Z,8.17
2022-11-25T09:24:41.782Z,8.01
2022-11-25T09:27:11.030Z,8.23
2022-11-25T09:29:38.268Z,8.14
2022-11-25T09:32:05.465Z,8.45
2022-11-25T09:34:32.347Z,8.66
2022-11-25T09:37:01.571Z,8.80
2022-11-25T09:39:31.005Z,9.01
2022-11-25T09:42:43.765Z,9.06
2022-11-25T09:45:48.530Z,9.10
2022-11-25T09:48:24.163Z,8.63
2022-11-25T09:51:22.104Z,8.58
2022-11-25T09:54:07.082Z,8.34
2022-11-25T09:56:51.900Z,8.23
2022-11-25T09:59:24.768Z,8.35
2022-11-25T10:02:14.924Z,8.37
2022-11-25T10:04:47.833Z,8.49
2022-11-25T10:07:23.033Z,8.45
2022-11-25T10:09:50.087Z,8.45
2022-11-25T10:12:27.081Z,8.39
2022-11-25T10:15:04.979Z,8.20
2022-11-25T10:17:56.200Z,8.30
2022-11-25T10:20:29.637Z,8.41
2022-11-25T10:23:02.370Z,8.63
2022-11-25T10:25:37.519Z,8.66
2022-11-25T10:28:27.289Z,8.82
2022-11-25T10:31:19.211Z,8.99
2022-11-25T10:33:58.654Z,9.02
2022-11-25T10:36:31.421Z,8.65
2022-11-25T10:39:15.017Z,8.79
2022-11-25T10:41:55.604Z,8.98
2022-11-25T10:44:30.082Z,8.99
2022-11-25T10:47:37.038Z,8.91
2022-11-25T10:50:16.731Z,8.95
2022-11-25T10:52:57.363Z,8.74
2022-11-25T10:55:28.762Z,9.01
2022-11-25T10:57:56.249Z,8.90
2022-11-25T11:00:39.469Z,8.94
2022-11-25T11:03:24.558Z,9.03
2022-11-25T11:05:54.904Z,8.96
2022-11-25T11:08:27.412Z,8.94
2022-11-25T11:11:23.527Z,9.01
2022-11-25T11:14:08.207Z,9.00
2022-11-25T11:16:45.436Z,8.81
2022-11-25T11:19:29.385Z,8.90
2022-11-25T11:21:58.089Z,8.78
2022-11-25T11:24:38.241Z,8.95
2022-11-25T11:27:26.610Z,8.70
2022-11-25T11:30:20.990Z,8.61
2022-11-25T11:33:29.449Z,8.82
2022-11-25T11:36:22.678Z,8.91
2022-11-25T11:39:04.411Z,9.01
2022-11-25T11:41:58.797Z,8.96
2022-11-25T11:45:14.912Z,8.95
2022-11-25T11:47:54.127Z,9.00
2022-11-25T11:50:34.357Z,8.77
2022-11-25T11:53:55.020Z,8.73
2022-11-25T11:57:15.103Z,9.03
2022-11-25T12:00:04.529Z,9.16
2022-11-25T12:03:14.666Z,9.36
2022-11-25T12:05:42.152Z,9.29
2022-11-25T12:08:45.795Z,9.20
2022-11-25T12:11:20.903Z,9.47
2022-11-25T12:14:05.204Z,9.61
2022-11-25T12:16:57.425Z,9.64
2022-11-25T12:19:33.594Z,9.61
2022-11-25T12:22:07.637Z,9.45
2022-11-25T12:25:21.906Z,9.29
2022-11-25T12:28:22.363Z,9.19
2022-11-25T12:31:22.431Z,9.29
2022-11-25T12:34:06.083Z,9.18
2022-11-25T12:36:41.388Z,9.16
2022-11-25T12:39:36.666Z,9.10
2022-11-25T12:42:15.682Z,9.22
2022-11-25T12:45:27.886Z,9.26
2022-11-25T12:47:54.821Z,9.35
2022-11-25T12:51:10.152Z,9.48
2022-11-25T12:54:25.986Z,9.43
2022-11-25T12:57:07.716Z,9.46
2022-11-25T13:00:25.102Z,9.51
2022-11-25T13:03:41.102Z,9.52
2022-11-25T13:06:52.471Z,9.59
2022-11-25T13:09:52.172Z,9.43
2022-11-25T13:12:44.082Z,9.60
2022-11-25T13:15:29.068Z,9.55
2022-11-25T13:18:16.867Z,9.71
2022-11-25T13:20:54.051Z,9.91
2022-11-25T13:23:24.199Z,10.00
2022-11-25T13:25:53.441Z,9.98
2022-11-25T13:28:36.611Z,9.92
2022-11-25T13:31:23.914Z,9.84
2022-11-25T13:34:25.829Z,9.84
2022-11-25T13:37:00.758Z,9.93
2022-11-25T13:39:36.669Z,9.91
2022-11-25T13:42:26.642Z,9.76
2022-11-25T13:44:59.083Z,9.95
2022-11-25T13:47:31.549Z,9.86
2022-11-25T13:50:11.777Z,9.98
2022-11-25T13:53:29.499Z,9.95
2022-11-25T13:56:25.326Z,9.85
2022-11-25T13:59:10.301Z,10.10
2022-11-25T14:02:26.356Z,10.11
2022-11-25T14:04:53.227Z,9.96
2022-11-25T14:08:16.013Z,9.94
2022-11-25T14:11:05.274Z,10.01
2022-11-25T14:14:12.194Z,10.03
2022-11-25T14:17:04.078Z,9.88
2022-11-25T14:22:39.126Z,9.93
2022-11-25T14:25:32.213Z,10.02
2022-11-25T14:28:26.435Z,10.08
2022-11-25T14:31:05.510Z,10.27
2022-11-25T14:34:09.939Z,10.14
2022-11-25T14:36:52.812Z,10.22
2022-11-25T14:39:49.578Z,10.34
2022-11-25T14:42:21.992Z,10.40
2022-11-25T14:44:59.164Z,10.36
2022-11-25T14:47:38.564Z,10.36
2022-11-25T14:50:34.396Z,10.31
2022-11-25T14:53:09.847Z,10.30
2022-11-25T14:55:37.690Z,10.11
2022-11-25T14:58:04.633Z,10.19
2022-11-25T15:00:34.069Z,10.57
2022-11-25T15:03:06.477Z,10.57
2022-11-25T15:05:40.930Z,10.60
2022-11-25T15:08:17.859Z,10.55
2022-11-25T15:11:01.616Z,10.73
2022-11-25T15:13:39.255Z,10.50
2022-11-25T15:16:25.360Z,10.47
2022-11-25T15:19:01.188Z,10.63
2022-11-25T15:21:48.353Z,10.64
2022-11-25T15:24:32.840Z,10.60
2022-11-25T15:27:03.004Z,10.65
2022-11-25T15:29:31.278Z,10.47
2022-11-25T15:32:02.316Z,10.39
2022-11-25T15:34:32.135Z,10.48
2022-11-25T15:37:03.087Z,10.52
2022-11-25T15:39:32.956Z,10.81
2022-11-25T15:42:24.451Z,11.04
2022-11-25T15:45:05.191Z,11.17
2022-11-25T15:47:37.682Z,11.11
2022-11-25T15:50:27.195Z,11.21
2022-11-25T15:53:00.339Z,11.25
2022-11-25T15:55:35.848Z,11.18
2022-11-25T15:58:20.005Z,11.17
2022-11-25T16:01:18.170Z,11.05
2022-11-25T16:03:46.508Z,10.89
2022-11-25T16:06:28.246Z,10.96
2022-11-25T16:09:01.332Z,11.05
2022-11-25T16:11:33.995Z,10.74
2022-11-25T16:14:35.014Z,10.71
2022-11-25T16:17:10.656Z,10.61
2022-11-25T16:19:48.084Z,10.77
2022-11-25T16:22:18.775Z,10.93
2022-11-25T16:25:00.590Z,10.87
2022-11-25T16:27:32.145Z,10.96
2022-11-25T16:30:18.963Z,10.79
2022-11-25T16:32:46.094Z,10.86
2022-11-25T16:35:22.165Z,10.99
2022-11-25T16:37:49.805Z,11.09
2022-11-25T16:40:18.969Z,11.14
2022-11-25T16:42:50.251Z,11.26
2022-11-25T16:45:28.382Z,11.24
2022-11-25T16:47:55.577Z,11.31
2022-11-25T16:50:23.160Z,11.25
2022-11-25T16:52:56.032Z,11.38
2022-11-25T16:55:28.625Z,11.44
2022-11-25T16:57:55.505Z,11.52
2022-11-25T17:00:27.472Z,11.62
2022-11-25T17:02:54.407Z,11.61
2022-11-25T17:05:26.914Z,11.45
2022-11-25T17:07:58.408Z,11.55
2022-11-25T17:10:30.880Z,11.49
2022-11-25T17:12:58.950Z,11.44
2022-11-25T17:15:34.288Z,11.40
2022-11-25T17:18:07.482Z,11.50
2022-11-25T17:20:34.881Z,11.45
2022-11-25T17:23:02.312Z,11.38
2022-11-25T17:25:36.724Z,11.37
2022-11-25T17:28:04.506Z,11.40
2022-11-25T17:30:32.388Z,11.32
2022-11-25T17:33:13.358Z,11.41
2022-11-25T17:35:43.102Z,11.38
2022-11-25T17:38:24.021Z,11.39
2022-11-25T17:40:50.904Z,11.52
2022-11-25T17:43:23.156Z,11.55
2022-11-25T17:45:50.219Z,11.59
2022-11-25T17:48:18.457Z,11.51
2022-11-25T17:50:46.848Z,11.56
2022-11-25T17:53:13.748Z,11.48
2022-11-25T17:55:43.094Z,11.47
2022-11-25T17:58:14.723Z,11.35
2022-11-25T18:00:46.899Z,11.52
2022-11-25T18:03:19.082Z,11.50
2022-11-25T18:05:48.999Z,11.31
2022-11-25T18:08:18.102Z,11.28
2022-11-25T18:10:46.863Z,11.39
2022-11-25T18:13:13.918Z,11.28
2022-11-25T18:15:40.874Z,11.25
2022-11-25T18:18:25.841Z,11.18
2022-11-25T18:20:53.394Z,11.16
2022-11-25T18:23:25.462Z,10.93
2022-11-25T18:25:53.456Z,10.96
2022-11-25T18:28:25.193Z,11.09
2022-11-25T18:31:00.980Z,11.22
2022-11-25T18:33:31.816Z,11.28
2022-11-25T18:35:58.757Z,11.22
2022-11-25T18:38:28.197Z,11.19
2022-11-25T18:40:56.031Z,11.13
2022-11-25T18:43:26.803Z,11.24
2022-11-25T18:45:54.384Z,11.31
2022-11-25T18:48:28.093Z,11.32
2022-11-25T18:50:58.630Z,11.39
2022-11-25T18:53:28.126Z,11.48
2022-11-25T18:55:55.251Z,11.52
2022-11-25T18:58:26.923Z,11.26
2022-11-25T19:01:04.438Z,11.09
2022-11-25T19:03:33.620Z,11.10
2022-11-25T19:06:01.850Z,11.29
2022-11-25T19:08:29.596Z,11.37
2022-11-25T19:10:58.977Z,11.39
2022-11-25T19:13:36.593Z,11.33
2022-11-25T19:16:13.119Z,11.27
2022-11-25T19:18:40.552Z,11.37
2022-11-25T19:21:09.070Z,11.46
2022-11-25T19:23:36.164Z,11.45
2022-11-25T19:26:13.557Z,11.46
2022-11-25T19:28:41.694Z,11.54
2022-11-25T19:31:10.943Z,11.59
2022-11-25T19:33:41.458Z,11.72
2022-11-25T19:36:21.408Z,11.87
2022-11-25T19:38:48.326Z,11.82
2022-11-25T19:41:15.289Z,11.83
2022-11-25T19:43:48.153Z,11.91
2022-11-25T19:46:30.041Z,11.96
2022-11-25T19:49:02.996Z,11.91
2022-11-25T19:51:33.472Z,11.96
2022-11-25T19:54:02.601Z,12.10
2022-11-25T19:56:29.521Z,12.18
2022-11-25T19:58:59.022Z,12.22
2022-11-25T20:01:33.111Z,12.23
2022-11-25T20:04:00.373Z,12.20
2022-11-25T20:06:30.554Z,12.05
2022-11-25T20:09:06.562Z,12.09
2022-11-25T20:11:37.038Z,12.19
2022-11-25T20:14:08.905Z,12.18
2022-11-25T20:16:39.655Z,12.17
2022-11-25T20:19:14.438Z,12.13
2022-11-25T20:21:44.474Z,12.11
2022-11-25T20:24:17.576Z,12.04
2022-11-25T20:26:48.862Z,12.03
2022-11-25T20:29:30.604Z,12.09
2022-11-25T20:31:58.171Z,12.10
2022-11-25T20:34:25.401Z,12.09
2022-11-25T20:36:54.506Z,12.07
2022-11-25T20:39:21.455Z,11.95
2022-11-25T20:41:52.768Z,11.96
2022-11-25T20:44:22.054Z,11.97
2022-11-25T20:46:51.397Z,11.93
2022-11-25T20:49:27.257Z,11.95
2022-11-25T20:51:54.572Z,12.01
2022-11-25T20:54:24.515Z,12.12
2022-11-25T20:56:51.433Z,12.14
2022-11-25T20:59:23.707Z,12.04
2022-11-25T21:01:52.613Z,11.95
2022-11-25T21:04:19.728Z,11.88
2022-11-25T21:06:47.658Z,11.94
2022-11-25T21:09:27.411Z,11.78
2022-11-25T21:11:56.693Z,11.86
2022-11-25T21:14:26.618Z,11.95
2022-11-25T21:16:56.500Z,11.96
2022-11-25T21:19:25.630Z,11.89
2022-11-25T21:21:52.859Z,11.87
2022-11-25T21:24:39.461Z,11.88
2022-11-25T21:27:14.825Z,11.90
2022-11-25T21:29:44.056Z,12.01
2022-11-25T21:32:26.140Z,11.96
2022-11-25T21:34:53.894Z,12.03
2022-11-25T21:37:36.355Z,11.91
2022-11-25T21:40:07.923Z,11.84
2022-11-25T21:42:37.156Z,11.93
2022-11-25T21:45:04.563Z,12.10
2022-11-25T21:47:34.427Z,12.02
2022-11-25T21:50:12.323Z,12.00
2022-11-25T21:52:39.139Z,11.96
2022-11-25T21:55:06.392Z,11.99
2022-11-25T21:57:35.926Z,12.09
2022-11-25T22:00:03.084Z,11.83
2022-11-25T22:02:33.109Z,11.80
2022-11-25T22:05:02.100Z,11.87
2022-11-25T22:07:31.009Z,11.86
2022-11-25T22:10:00.337Z,11.95
2022-11-25T22:12:38.146Z,12.04
2022-11-25T22:15:17.359Z,11.93
2022-11-25T22:17:45.099Z,12.08
2022-11-25T22:20:28.974Z,11.99
2022-11-25T22:22:56.816Z,12.01
2022-11-25T22:25:27.445Z,12.02
2022-11-25T22:27:56.923Z,11.93
2022-11-25T22:30:24.591Z,11.84
2022-11-25T22:33:00.487Z,11.88
2022-11-25T22:35:29.898Z,11.89
2022-11-25T22:37:56.962Z,11.87
2022-11-25T22:40:26.338Z,11.99
2022-11-25T22:42:56.122Z,12.08
2022-11-25T22:45:34.162Z,12.09
2022-11-25T22:48:06.434Z,12.01
2022-11-25T22:50:36.011Z,11.84
2022-11-25T22:53:02.908Z,11.88
2022-11-25T22:55:32.711Z,11.86
2022-11-25T22:58:01.642Z,11.81
2022-11-25T23:00:35.006Z,11.56
2022-11-25T23:03:07.978Z,11.62
2022-11-25T23:05:37.417Z,11.61
2022-11-25T23:08:20.249Z,11.63
2022-11-25T23:10:48.392Z,11.56
2022-11-25T23:13:17.138Z,11.51
2022-11-25T23:15:53.453Z,11.48
2022-11-25T23:18:42.896Z,11.27
2022-11-25T23:21:27.856Z,11.21
2022-11-25T23:23:57.698Z,11.25
2022-11-25T23:26:32.276Z,11.02
2022-11-25T23:29:06.533Z,11.01
2022-11-25T23:31:38.704Z,11.09
2022-11-25T23:34:07.514Z,11.02
2022-11-25T23:36:44.607Z,10.96
2022-11-25T23:39:27.202Z,10.75
2022-11-25T23:41:56.799Z,10.89
2022-11-25T23:44:35.176Z,10.91
2022-11-25T23:47:09.570Z,10.91
2022-11-25T23:49:44.463Z,10.96
2022-11-25T23:52:21.816Z,10.96
2022-11-25T23:54:54.635Z,10.86
2022-11-25T23:57:33.114Z,10.80
2022-11-25T23:59:59.985Z,10.68
